createdAt,value
2022-10-05T00:00:56.397Z,2.50
2022-10-05T00:03:26.401Z,4.00
2022-10-05T00:05:55.749Z,2.20
2022-10-05T00:08:31.108Z,6.10
2022-10-05T00:10:59.715Z,3.50
2022-10-05T00:13:29.613Z,3.53
2022-10-05T00:16:01.106Z,5.53
2022-10-05T00:18:29.266Z,3.30
2022-10-05T00:20:59.850Z,5.00
2022-10-05T00:23:31.845Z,2.97
2022-10-05T00:26:07.464Z,5.53
2022-10-05T00:28:35.574Z,4.40
2022-10-05T00:31:03.605Z,2.90
2022-10-05T00:33:31.955Z,3.10
2022-10-05T00:36:01.530Z,3.33
2022-10-05T00:38:30.851Z,4.97
2022-10-05T00:41:06.170Z,4.90
2022-10-05T00:44:09.923Z,4.80
2022-10-05T00:46:50.920Z,3.27
2022-10-05T00:49:30.605Z,3.40
2022-10-05T00:52:09.680Z,3.77
2022-10-05T00:54:44.073Z,4.80
2022-10-05T00:57:34.711Z,5.20
2022-10-05T01:00:07.689Z,2.40
2022-10-05T01:02:48.764Z,3.13
2022-10-05T01:05:26.875Z,3.70
2022-10-05T01:08:04.243Z,4.77
2022-10-05T01:10:39.665Z,2.50
2022-10-05T01:13:17.510Z,4.00
2022-10-05T01:15:51.327Z,6.80
2022-10-05T01:18:25.250Z,3.90
2022-10-05T01:21:03.727Z,2.80
2022-10-05T01:24:12.547Z,7.50
2022-10-05T01:27:08.750Z,4.27
2022-10-05T01:29:43.502Z,6.00
2022-10-05T01:32:19.783Z,10.33
2022-10-05T01:34:54.678Z,3.07
2022-10-05T01:37:28.257Z,5.13
2022-10-05T01:40:04.474Z,5.70
2022-10-05T01:42:41.685Z,5.43
2022-10-05T01:45:16.693Z,7.23
2022-10-05T01:47:48.212Z,4.67
2022-10-05T01:50:28.115Z,3.70
2022-10-05T01:53:03.425Z,2.53
2022-10-05T01:55:40.123Z,3.23
2022-10-05T01:58:16.238Z,3.60
2022-10-05T02:00:52.856Z,5.30
2022-10-05T02:03:26.241Z,4.10
2022-10-05T02:05:58.131Z,5.80
2022-10-05T02:08:31.933Z,6.10
2022-10-05T02:11:04.629Z,2.57
2022-10-05T02:13:38.569Z,3.80
2022-10-05T02:16:12.070Z,8.60
2022-10-05T02:18:42.826Z,5.67
2022-10-05T02:21:11.749Z,5.03
2022-10-05T02:23:43.166Z,7.97
2022-10-05T02:26:13.018Z,4.87
2022-10-05T02:28:45.257Z,5.90
2022-10-05T02:31:18.310Z,3.03
2022-10-05T02:33:49.002Z,7.53
2022-10-05T02:36:24.192Z,4.17
2022-10-05T02:39:02.503Z,4.30
2022-10-05T02:41:43.783Z,5.93
2022-10-05T02:44:19.378Z,3.17
2022-10-05T02:46:57.699Z,3.90
2022-10-05T02:49:38.121Z,3.53
2022-10-05T02:52:11.646Z,3.57
2022-10-05T02:54:48.546Z,4.03
2022-10-05T02:57:25.703Z,4.47
2022-10-05T03:00:01.186Z,4.40
2022-10-05T03:02:34.775Z,4.87
2022-10-05T03:05:11.784Z,5.13
2022-10-05T03:07:47.162Z,2.70
2022-10-05T03:10:27.730Z,4.53
2022-10-05T03:13:03.409Z,10.43
2022-10-05T03:15:54.796Z,3.70
2022-10-05T03:18:36.635Z,5.10
2022-10-05T03:21:14.286Z,8.40
2022-10-05T03:23:54.286Z,6.07
2022-10-05T03:26:35.869Z,4.13
2022-10-05T03:29:11.151Z,2.80
2022-10-05T03:31:45.610Z,3.47
2022-10-05T03:34:21.691Z,6.80
2022-10-05T03:36:55.226Z,3.23
2022-10-05T03:39:30.160Z,3.63
2022-10-05T03:42:09.271Z,3.83
2022-10-05T03:44:45.420Z,3.50
2022-10-05T03:47:21.139Z,3.80
2022-10-05T03:50:05.663Z,2.80
2022-10-05T03:52:39.246Z,4.83
2022-10-05T03:55:18.413Z,6.00
2022-10-05T03:57:48.409Z,4.30
2022-10-05T04:00:19.717Z,4.53
2022-10-05T04:03:01.709Z,8.30
2022-10-05T04:05:35.472Z,5.83
2022-10-05T04:08:08.331Z,6.83
2022-10-05T04:10:42.986Z,4.97
2022-10-05T04:13:17.337Z,8.17
2022-10-05T04:15:50.952Z,3.30
2022-10-05T04:18:26.527Z,4.70
2022-10-05T04:20:59.884Z,2.53
2022-10-05T04:23:39.378Z,4.13
2022-10-05T04:26:12.537Z,3.80
2022-10-05T04:28:49.822Z,2.93
2022-10-05T04:31:31.234Z,4.43
2022-10-05T04:34:10.412Z,6.90
2022-10-05T04:36:46.811Z,5.80
2022-10-05T04:39:23.799Z,5.33
2022-10-05T04:42:02.838Z,3.37
2022-10-05T04:44:48.081Z,5.37
2022-10-05T04:47:31.483Z,4.63
2022-10-05T04:50:18.505Z,3.20
2022-10-05T04:53:11.094Z,3.70
2022-10-05T04:55:48.250Z,3.43
2022-10-05T04:58:30.144Z,3.40
2022-10-05T05:01:09.273Z,3.10
2022-10-05T05:03:53.767Z,5.97
2022-10-05T05:06:32.603Z,4.63
2022-10-05T05:09:22.319Z,5.40
2022-10-05T05:12:04.842Z,4.73
2022-10-05T05:14:56.723Z,6.27
2022-10-05T05:17:43.275Z,4.80
2022-10-05T05:20:21.469Z,3.87
2022-10-05T05:22:55.041Z,4.40
2022-10-05T05:25:36.677Z,5.20
2022-10-05T05:28:18.902Z,3.33
2022-10-05T05:30:52.205Z,5.43
2022-10-05T05:33:23.088Z,6.53
2022-10-05T05:36:25.659Z,3.13
2022-10-05T05:39:07.459Z,12.03
2022-10-05T05:41:40.166Z,2.67
2022-10-05T05:44:21.258Z,3.17
2022-10-05T05:47:04.347Z,5.93
2022-10-05T05:49:49.025Z,3.17
2022-10-05T05:52:23.055Z,5.03
2022-10-05T05:54:57.548Z,5.37
2022-10-05T05:57:33.440Z,3.33
2022-10-05T06:00:06.322Z,3.23
2022-10-05T06:03:03.689Z,3.50
2022-10-05T06:05:35.286Z,4.83
2022-10-05T06:08:16.594Z,3.93
2022-10-05T06:10:52.430Z,5.20
2022-10-05T06:13:27.562Z,4.50
2022-10-05T06:16:00.745Z,2.67
2022-10-05T06:18:33.043Z,3.73
2022-10-05T06:21:04.601Z,4.03
2022-10-05T06:23:40.986Z,5.83
2022-10-05T06:26:35.085Z,4.27
2022-10-05T06:29:09.338Z,3.30
2022-10-05T06:31:58.603Z,6.30
2022-10-05T06:34:48.602Z,3.63
2022-10-05T06:37:29.288Z,2.53
2022-10-05T06:40:10.065Z,3.80
2022-10-05T06:42:52.379Z,2.60
2022-10-05T06:45:54.420Z,2.40
2022-10-05T06:49:04.761Z,3.03
2022-10-05T06:51:58.939Z,3.30
2022-10-05T06:54:49.671Z,3.00
2022-10-05T06:57:55.343Z,2.50
2022-10-05T07:00:25.741Z,7.10
2022-10-05T07:03:04.101Z,2.60
2022-10-05T07:05:48.962Z,3.10
2022-10-05T07:08:25.707Z,3.93
2022-10-05T07:11:05.860Z,4.60
2022-10-05T07:13:51.978Z,3.87
2022-10-05T07:16:32.436Z,3.23
2022-10-05T07:19:16.712Z,3.13
2022-10-05T07:21:52.155Z,3.77
2022-10-05T07:24:30.251Z,3.10
2022-10-05T07:27:09.016Z,2.43
2022-10-05T07:29:45.348Z,2.80
2022-10-05T07:32:25.382Z,5.27
2022-10-05T07:35:05.224Z,3.00
2022-10-05T07:37:57.738Z,2.87
2022-10-05T07:40:37.730Z,4.90
2022-10-05T07:43:19.751Z,3.57
2022-10-05T07:45:54.722Z,2.73
2022-10-05T07:48:29.059Z,3.17
2022-10-05T07:51:02.823Z,4.00
2022-10-05T07:53:36.255Z,2.10
2022-10-05T07:56:11.049Z,2.40
2022-10-05T07:58:44.447Z,3.17
2022-10-05T08:01:19.063Z,2.57
2022-10-05T08:03:54.114Z,2.53
2022-10-05T08:06:41.950Z,3.70
2022-10-05T08:09:23.251Z,2.60
2022-10-05T08:11:58.720Z,2.67
2022-10-05T08:14:35.816Z,2.60
2022-10-05T08:17:09.037Z,1.93
2022-10-05T08:19:44.610Z,4.10
2022-10-05T08:22:19.746Z,2.70
2022-10-05T08:24:56.019Z,2.90
2022-10-05T08:27:30.065Z,2.57
2022-10-05T08:30:02.006Z,2.00
2022-10-05T08:32:34.700Z,3.07
2022-10-05T08:35:12.163Z,2.30
2022-10-05T08:37:46.252Z,2.20
2022-10-05T08:40:45.155Z,3.80
2022-10-05T08:43:34.344Z,2.53
2022-10-05T08:46:36.873Z,3.43
2022-10-05T08:49:21.538Z,3.03
2022-10-05T08:52:29.156Z,2.83
2022-10-05T08:55:33.495Z,2.10
2022-10-05T08:58:27.044Z,2.40
2022-10-05T09:01:02.752Z,2.80
2022-10-05T09:04:04.329Z,2.63
2022-10-05T09:07:00.224Z,2.73
2022-10-05T09:10:12.845Z,1.80
2022-10-05T09:13:12.265Z,2.50
2022-10-05T09:16:15.135Z,3.27
2022-10-05T09:19:02.485Z,1.70
2022-10-05T09:21:41.706Z,2.10
2022-10-05T09:24:27.790Z,2.00
2022-10-05T09:27:03.684Z,4.97
2022-10-05T09:30:05.627Z,2.20
2022-10-05T09:33:14.495Z,3.33
2022-10-05T09:36:23.906Z,3.10
2022-10-05T09:39:14.547Z,2.10
2022-10-05T09:42:19.101Z,1.77
2022-10-05T09:45:26.077Z,1.37
2022-10-05T09:48:25.845Z,1.60
2022-10-05T09:51:20.998Z,1.90
2022-10-05T09:54:29.765Z,1.40
2022-10-05T09:57:18.211Z,2.57
2022-10-05T10:00:16.446Z,1.30
2022-10-05T10:03:05.781Z,1.73
2022-10-05T10:05:57.947Z,0.80
2022-10-05T10:08:40.750Z,0.90
2022-10-05T10:11:38.362Z,4.70
2022-10-05T10:14:24.947Z,2.00
2022-10-05T10:17:16.096Z,1.40
2022-10-05T10:20:06.827Z,1.30
2022-10-05T10:26:48.755Z,1.00
2022-10-05T10:29:41.065Z,2.67
2022-10-05T10:32:28.578Z,1.00
2022-10-05T10:35:23.172Z,2.70
2022-10-05T10:38:27.677Z,1.20
2022-10-05T10:41:27.417Z,0.90
2022-10-05T10:44:28.362Z,1.73
2022-10-05T10:47:19.241Z,1.63
2022-10-05T10:50:14.264Z,1.13
2022-10-05T10:52:56.426Z,2.30
2022-10-05T10:55:39.107Z,1.47
2022-10-05T10:58:43.834Z,0.80
2022-10-05T11:01:28.210Z,1.07
2022-10-05T11:04:21.725Z,1.10
2022-10-05T11:07:34.456Z,1.10
2022-10-05T11:10:26.439Z,1.80
2022-10-05T11:13:30.035Z,1.77
2022-10-05T11:16:23.623Z,1.53
2022-10-05T11:19:20.398Z,1.20
2022-10-05T11:22:07.371Z,1.13
2022-10-05T11:24:51.465Z,1.40
2022-10-05T11:27:44.584Z,1.40
2022-10-05T11:30:30.222Z,1.10
2022-10-05T11:33:34.252Z,1.30
2022-10-05T11:36:26.746Z,1.27
2022-10-05T11:39:28.596Z,1.37
2022-10-05T11:42:32.619Z,1.30
2022-10-05T11:45:26.096Z,1.20
2022-10-05T11:48:20.897Z,1.07
2022-10-05T11:51:30.124Z,1.47
2022-10-05T11:54:58.622Z,1.17
2022-10-05T11:57:29.862Z,0.83
2022-10-05T12:00:04.103Z,0.97
2022-10-05T12:02:58.933Z,0.80
2022-10-05T12:05:35.125Z,1.30
2022-10-05T12:08:22.464Z,1.03
2022-10-05T12:11:03.635Z,1.60
2022-10-05T12:13:40.152Z,1.30
2022-10-05T12:16:15.469Z,1.10
2022-10-05T12:19:00.138Z,1.10
2022-10-05T12:21:37.290Z,1.43
2022-10-05T12:24:15.419Z,2.07
2022-10-05T12:26:51.213Z,1.00
2022-10-05T12:29:25.715Z,1.40
2022-10-05T12:31:59.899Z,1.43
2022-10-05T12:34:41.922Z,0.90
2022-10-05T12:37:17.991Z,1.57
2022-10-05T12:39:54.601Z,1.23
2022-10-05T12:42:31.242Z,2.33
2022-10-05T12:45:14.420Z,1.23
2022-10-05T12:47:56.866Z,1.20
2022-10-05T12:50:29.147Z,1.13
2022-10-05T12:53:20.331Z,1.10
2022-10-05T12:55:57.867Z,1.17
2022-10-05T12:58:35.180Z,0.97
2022-10-05T13:01:10.826Z,0.90
2022-10-05T13:03:41.206Z,1.40
2022-10-05T13:06:17.712Z,1.57
2022-10-05T13:08:51.586Z,1.10
2022-10-05T13:11:29.356Z,0.90
2022-10-05T13:14:05.208Z,0.80
2022-10-05T13:16:41.274Z,1.10
2022-10-05T13:19:26.956Z,1.20
2022-10-05T13:22:11.458Z,1.10
2022-10-05T13:24:49.242Z,1.10
2022-10-05T13:27:24.627Z,1.63
2022-10-05T13:30:00.140Z,1.10
2022-10-05T13:32:35.291Z,1.13
2022-10-05T13:35:17.800Z,1.20
2022-10-05T13:37:53.926Z,1.10
2022-10-05T13:40:29.921Z,1.40
2022-10-05T13:43:05.370Z,1.00
2022-10-05T13:45:39.716Z,1.00
2022-10-05T13:48:19.786Z,1.10
2022-10-05T13:50:55.369Z,0.93
2022-10-05T13:53:31.921Z,1.23
2022-10-05T13:56:05.806Z,0.93
2022-10-05T13:58:46.092Z,1.10
2022-10-05T14:01:18.122Z,1.00
2022-10-05T14:04:05.445Z,1.57
2022-10-05T14:06:37.030Z,1.37
2022-10-05T14:09:05.382Z,1.10
2022-10-05T14:11:35.823Z,1.00
2022-10-05T14:14:15.710Z,1.00
2022-10-05T14:16:50.487Z,1.00
2022-10-05T14:19:22.198Z,1.10
2022-10-05T14:21:55.578Z,0.90
2022-10-05T14:24:43.726Z,1.20
2022-10-05T14:27:22.611Z,1.10
2022-10-05T14:30:00.661Z,0.83
2022-10-05T14:32:32.854Z,1.00
2022-10-05T14:35:13.860Z,1.07
2022-10-05T14:37:50.159Z,1.20
2022-10-05T14:40:36.001Z,1.17
2022-10-05T14:43:20.365Z,1.20
2022-10-05T14:45:57.622Z,1.40
2022-10-05T14:48:28.312Z,1.47
2022-10-05T14:50:59.214Z,2.27
2022-10-05T14:53:38.698Z,1.20
2022-10-05T14:56:25.238Z,1.27
2022-10-05T14:59:19.878Z,1.80
2022-10-05T15:01:56.487Z,0.90
2022-10-05T15:04:42.811Z,1.83
2022-10-05T15:07:23.814Z,1.20
2022-10-05T15:10:03.550Z,1.53
2022-10-05T15:12:35.636Z,1.30
2022-10-05T15:15:07.563Z,1.20
2022-10-05T15:17:43.154Z,1.30
2022-10-05T15:20:20.714Z,1.80
2022-10-05T15:22:55.206Z,1.37
2022-10-05T15:25:30.599Z,1.27
2022-10-05T15:28:14.031Z,0.90
2022-10-05T15:31:02.477Z,1.13
2022-10-05T15:33:35.462Z,1.10
2022-10-05T15:36:10.418Z,1.30
2022-10-05T15:38:51.804Z,1.00
2022-10-05T15:41:24.709Z,1.10
2022-10-05T15:44:05.226Z,1.90
2022-10-05T15:46:41.256Z,1.43
2022-10-05T15:49:25.663Z,1.10
2022-10-05T15:52:01.601Z,1.70
2022-10-05T15:54:51.048Z,1.27
2022-10-05T15:57:25.962Z,1.37
2022-10-05T16:00:01.896Z,1.30
2022-10-05T16:02:42.023Z,1.30
2022-10-05T16:05:57.140Z,1.63
2022-10-05T16:08:58.437Z,1.10
2022-10-05T16:11:40.424Z,1.00
2022-10-05T16:14:20.385Z,1.10
2022-10-05T16:16:58.954Z,1.30
2022-10-05T16:19:34.833Z,1.13
2022-10-05T16:22:12.107Z,2.23
2022-10-05T16:24:56.337Z,1.30
2022-10-05T16:27:36.021Z,2.03
2022-10-05T16:30:08.587Z,1.60
2022-10-05T16:32:40.231Z,2.33
2022-10-05T16:35:20.656Z,2.47
2022-10-05T16:38:01.256Z,1.60
2022-10-05T16:40:36.790Z,1.83
2022-10-05T16:43:15.714Z,4.37
2022-10-05T16:45:56.311Z,1.13
2022-10-05T16:48:27.277Z,3.57
2022-10-05T16:51:09.462Z,2.20
2022-10-05T16:53:43.135Z,1.67
2022-10-05T16:56:15.121Z,2.13
2022-10-05T16:58:56.384Z,1.43
2022-10-05T17:01:42.345Z,1.40
2022-10-05T17:04:27.810Z,1.83
2022-10-05T17:07:34.964Z,2.07
2022-10-05T17:10:43.257Z,1.43
2022-10-05T17:13:24.289Z,1.73
2022-10-05T17:16:05.326Z,1.33
2022-10-05T17:19:05.702Z,2.37
2022-10-05T17:21:39.170Z,1.23
2022-10-05T17:24:25.606Z,1.80
2022-10-05T17:27:03.402Z,1.37
2022-10-05T17:29:47.556Z,3.00
2022-10-05T17:32:36.062Z,1.70
2022-10-05T17:35:18.383Z,1.23
2022-10-05T17:38:16.275Z,1.50
2022-10-05T17:41:17.727Z,2.20
2022-10-05T17:44:19.361Z,2.30
2022-10-05T17:46:49.801Z,3.80
2022-10-05T17:49:23.856Z,1.30
2022-10-05T17:52:26.528Z,2.03
2022-10-05T17:55:21.076Z,1.20
2022-10-05T17:57:49.150Z,2.20
2022-10-05T18:00:55.972Z,2.67
2022-10-05T18:03:35.850Z,1.27
2022-10-05T18:06:37.556Z,1.30
2022-10-05T18:09:33.124Z,1.40
2022-10-05T18:12:26.475Z,1.20
2022-10-05T18:14:59.596Z,1.47
2022-10-05T18:17:45.257Z,1.63
2022-10-05T18:20:31.402Z,1.40
2022-10-05T18:23:30.041Z,1.20
2022-10-05T18:26:06.183Z,2.70
2022-10-05T18:28:46.590Z,1.90
2022-10-05T18:31:27.236Z,1.20
2022-10-05T18:34:07.846Z,1.33
2022-10-05T18:37:10.455Z,1.80
2022-10-05T18:39:54.297Z,3.23
2022-10-05T18:42:29.548Z,1.60
2022-10-05T18:45:02.747Z,1.33
2022-10-05T18:47:37.284Z,5.50
2022-10-05T18:50:18.102Z,1.83
2022-10-05T18:53:02.853Z,1.10
2022-10-05T18:55:36.299Z,2.10
2022-10-05T18:58:14.494Z,2.57
2022-10-05T19:00:59.867Z,1.70
2022-10-05T19:03:33.598Z,1.60
2022-10-05T19:06:16.449Z,1.00
2022-10-05T19:08:56.214Z,1.20
2022-10-05T19:11:31.965Z,1.63
2022-10-05T19:14:12.029Z,1.70
2022-10-05T19:16:57.941Z,1.40
2022-10-05T19:19:50.670Z,2.27
2022-10-05T19:22:29.161Z,1.60
2022-10-05T19:25:17.266Z,1.17
2022-10-05T19:27:55.550Z,1.40
2022-10-05T19:30:27.173Z,1.30
2022-10-05T19:33:13.556Z,1.97
2022-10-05T19:35:58.113Z,1.27
2022-10-05T19:38:36.740Z,1.07
2022-10-05T19:41:14.188Z,1.00
2022-10-05T19:44:15.050Z,1.20
2022-10-05T19:46:55.425Z,1.17
2022-10-05T19:49:44.598Z,1.30
2022-10-05T19:52:21.062Z,2.00
2022-10-05T19:55:04.851Z,1.20
2022-10-05T19:57:34.499Z,1.93
2022-10-05T20:00:02.516Z,1.30
2022-10-05T20:02:37.520Z,2.60
2022-10-05T20:05:09.934Z,0.90
2022-10-05T20:07:38.877Z,1.63
2022-10-05T20:10:28.254Z,0.90
2022-10-05T20:12:58.489Z,1.40
2022-10-05T20:15:45.903Z,1.40
2022-10-05T20:18:50.008Z,1.97
2022-10-05T20:21:42.038Z,0.90
2022-10-05T20:24:12.147Z,0.90
2022-10-05T20:27:02.030Z,2.13
2022-10-05T20:29:31.481Z,1.20
2022-10-05T20:31:59.761Z,1.00
2022-10-05T20:34:27.890Z,1.23
2022-10-05T20:36:55.876Z,4.57
2022-10-05T20:39:23.963Z,2.30
2022-10-05T20:41:55.117Z,1.80
2022-10-05T20:44:23.464Z,1.40
2022-10-05T20:46:52.679Z,1.30
2022-10-05T20:49:22.734Z,1.67
2022-10-05T20:51:51.429Z,2.37
2022-10-05T20:54:19.479Z,2.67
2022-10-05T20:56:47.490Z,1.23
2022-10-05T20:59:17.671Z,1.20
2022-10-05T21:01:47.935Z,1.40
2022-10-05T21:04:17.597Z,1.77
2022-10-05T21:06:46.506Z,1.60
2022-10-05T21:09:16.488Z,1.63
2022-10-05T21:11:45.235Z,1.40
2022-10-05T21:14:13.800Z,4.40
2022-10-05T21:16:45.806Z,1.37
2022-10-05T21:19:15.598Z,2.13
2022-10-05T21:21:45.456Z,2.20
2022-10-05T21:24:15.184Z,1.40
2022-10-05T21:26:44.218Z,1.40
2022-10-05T21:29:13.239Z,1.90
2022-10-05T21:31:44.024Z,9.60
2022-10-05T21:34:12.246Z,1.63
2022-10-05T21:36:40.254Z,1.77
2022-10-05T21:39:08.242Z,1.27
2022-10-05T21:41:36.235Z,3.60
2022-10-05T21:44:06.237Z,3.50
2022-10-05T21:46:36.967Z,1.20
2022-10-05T21:49:06.965Z,1.30
2022-10-05T21:51:36.272Z,0.80
2022-10-05T21:54:08.054Z,1.00
2022-10-05T21:56:39.272Z,1.03
2022-10-05T21:59:10.563Z,1.30
2022-10-05T22:01:38.657Z,3.10
2022-10-05T22:04:09.021Z,0.90
2022-10-05T22:06:37.493Z,0.90
2022-10-05T22:09:06.039Z,0.90
2022-10-05T22:11:34.319Z,1.10
2022-10-05T22:14:03.128Z,1.07
2022-10-05T22:16:33.882Z,1.07
2022-10-05T22:19:05.134Z,1.00
2022-10-05T22:21:37.860Z,1.40
2022-10-05T22:24:06.511Z,1.00
2022-10-05T22:26:35.937Z,1.00
2022-10-05T22:29:04.534Z,1.03
2022-10-05T22:31:32.665Z,1.10
2022-10-05T22:34:00.710Z,1.37
2022-10-05T22:36:29.005Z,0.70
2022-10-05T22:38:58.521Z,0.80
2022-10-05T22:41:26.594Z,0.70
2022-10-05T22:43:54.600Z,1.47
2022-10-05T22:46:22.646Z,0.90
2022-10-05T22:48:50.679Z,0.80
2022-10-05T22:51:18.722Z,0.90
2022-10-05T22:53:46.785Z,1.20
2022-10-05T22:56:16.629Z,0.60
2022-10-05T22:58:45.761Z,0.70
2022-10-05T23:01:15.795Z,0.77
2022-10-05T23:03:43.978Z,0.70
2022-10-05T23:06:14.391Z,0.60
2022-10-05T23:08:42.942Z,0.80
2022-10-05T23:11:13.385Z,0.70
2022-10-05T23:13:43.199Z,3.77
2022-10-05T23:16:13.101Z,0.80
2022-10-05T23:18:41.967Z,1.03
2022-10-05T23:21:11.902Z,0.60
2022-10-05T23:23:41.974Z,1.43
2022-10-05T23:26:12.214Z,1.17
2022-10-05T23:28:43.129Z,0.60
2022-10-05T23:31:11.303Z,2.63
2022-10-05T23:33:39.353Z,0.60
2022-10-05T23:36:10.679Z,0.70
2022-10-05T23:38:38.765Z,0.60
2022-10-05T23:41:08.664Z,0.60
2022-10-05T23:43:37.298Z,0.60
2022-10-05T23:46:08.005Z,0.80
2022-10-05T23:48:37.920Z,1.33
2022-10-05T23:51:07.346Z,0.70
2022-10-05T23:53:35.371Z,1.00
2022-10-05T23:56:06.188Z,0.70
2022-10-05T23:58:34.301Z,1.40
